Time;durP1;ratioP1;P1;durP2;ratioP2;P2;SDS_P1;SDS_P2;PMS_P1;PMS_P2;Temp;Humidity;BMP_temperature;BMP_pressure;BME280_temperature;BME280_humidity;BME280_pressure;Samples;Min_cycle;Max_cycle;Signal;HPM_P1;HPM_P2
2022/03/30 00:02:13;;;;;;;21.83;5.97;;;;;;;;;;5016640;28;20049;-64
2022/03/30 00:04:39;;;;;;;20.73;5.63;;;;;;;;;;5017726;28;20395;-64
2022/03/30 00:07:05;;;;;;;19.83;5.85;;;;;;;;;;5015492;28;20041;-64
2022/03/30 00:09:32;;;;;;;12.85;5.95;;;;;;;;;;5014448;28;20102;-64
2022/03/30 00:11:58;;;;;;;14.40;5.57;;;;;;;;;;5010294;28;20735;-64
2022/03/30 00:14:25;;;;;;;19.30;5.57;;;;;;;;;;5015243;28;20033;-63
2022/03/30 00:16:51;;;;;;;17.52;5.50;;;;;;;;;;5018692;28;20033;-64
2022/03/30 00:19:18;;;;;;;13.90;5.85;;;;;;;;;;5016328;28;20044;-63
2022/03/30 00:21:44;;;;;;;15.73;6.10;;;;;;;;;;5017786;28;20155;-64
2022/03/30 00:24:10;;;;;;;18.90;7.18;;;;;;;;;;5011657;28;20493;-64
2022/03/30 00:26:36;;;;;;;18.52;6.60;;;;;;;;;;5016993;28;20120;-63
2022/03/30 00:29:03;;;;;;;14.63;6.18;;;;;;;;;;5017204;28;20160;-63
2022/03/30 00:31:28;;;;;;;22.13;7.38;;;;;;;;;;5014793;28;20036;-63
2022/03/30 00:33:54;;;;;;;16.55;7.70;;;;;;;;;;5015510;28;20029;-63
2022/03/30 00:36:20;;;;;;;22.60;7.78;;;;;;;;;;5017792;28;20029;-63
2022/03/30 00:38:46;;;;;;;21.63;7.53;;;;;;;;;;5022694;28;20151;-64
2022/03/30 00:41:11;;;;;;;25.65;7.97;;;;;;;;;;5021304;28;20103;-64
2022/03/30 00:43:37;;;;;;;19.40;8.00;;;;;;;;;;5020877;28;20029;-63
2022/03/30 00:46:03;;;;;;;21.90;8.60;;;;;;;;;;5018252;28;20025;-63
2022/03/30 00:48:29;;;;;;;19.23;7.90;;;;;;;;;;5012680;28;20025;-63
2022/03/30 00:50:55;;;;;;;15.20;7.78;;;;;;;;;;5016611;28;20046;-64
2022/03/30 00:53:20;;;;;;;18.00;8.43;;;;;;;;;;5024099;28;20049;-63
2022/03/30 00:55:46;;;;;;;24.40;8.85;;;;;;;;;;5020362;28;20025;-64
2022/03/30 00:58:12;;;;;;;18.30;7.75;;;;;;;;;;5022793;28;20037;-64
2022/03/30 01:00:38;;;;;;;18.17;8.07;;;;;;;;;;5016120;28;20121;-63
2022/03/30 01:03:04;;;;;;;21.73;8.23;;;;;;;;;;5014962;28;20095;-64
2022/03/30 01:05:30;;;;;;;24.88;8.50;;;;;;;;;;5017802;28;20022;-63
2022/03/30 01:07:58;;;;;;;18.45;7.50;;;;;;;;;;5014957;28;20092;-64
2022/03/30 01:10:24;;;;;;;32.08;7.97;;;;;;;;;;5015541;28;20163;-63
2022/03/30 01:12:52;;;;;;;18.05;8.23;;;;;;;;;;5017253;28;20554;-63
2022/03/30 01:15:18;;;;;;;20.13;7.53;;;;;;;;;;5018993;28;20030;-64
2022/03/30 01:17:44;;;;;;;15.13;8.20;;;;;;;;;;5015887;28;20026;-64
2022/03/30 01:20:11;;;;;;;22.23;7.30;;;;;;;;;;5016159;28;20034;-63
2022/03/30 01:22:38;;;;;;;26.58;7.60;;;;;;;;;;5020256;28;20543;-63
2022/03/30 01:25:04;;;;;;;17.40;7.68;;;;;;;;;;5019833;28;20073;-64
2022/03/30 01:27:30;;;;;;;17.25;7.60;;;;;;;;;;5015971;28;20029;-63
2022/03/30 01:32:41;;;;;;;18.15;7.10;;;;;;;;;;5023060;28;20033;-64
2022/03/30 01:35:10;;;;;;;17.15;6.85;;;;;;;;;;5013725;28;20105;-64
2022/03/30 01:37:36;;;;;;;33.58;7.78;;;;;;;;;;5018602;28;20469;-62
2022/03/30 01:40:05;;;;;;;16.67;7.40;;;;;;;;;;5016900;28;20037;-64
2022/03/30 01:42:31;;;;;;;21.35;8.50;;;;;;;;;;5017357;28;20037;-64
2022/03/30 01:44:57;;;;;;;16.50;7.07;;;;;;;;;;5017984;28;20033;-64
2022/03/30 01:47:24;;;;;;;22.15;7.40;;;;;;;;;;5019511;28;20025;-64
2022/03/30 01:49:50;;;;;;;17.75;6.60;;;;;;;;;;5021821;28;20034;-64
2022/03/30 01:52:16;;;;;;;18.30;7.85;;;;;;;;;;5017095;28;20061;-62
2022/03/30 01:54:43;;;;;;;18.02;7.60;;;;;;;;;;5013884;28;20413;-64
2022/03/30 01:57:13;;;;;;;15.63;7.60;;;;;;;;;;5018273;28;20048;-64
2022/03/30 01:59:44;;;;;;;15.73;7.78;;;;;;;;;;5014309;28;20026;-63
2022/03/30 02:02:11;;;;;;;25.25;7.55;;;;;;;;;;5012123;28;20128;-64
2022/03/30 02:04:36;;;;;;;24.35;7.93;;;;;;;;;;5020006;28;20041;-64
2022/03/30 02:07:03;;;;;;;21.27;7.65;;;;;;;;;;5014800;28;20029;-64
2022/03/30 02:09:29;;;;;;;19.95;7.03;;;;;;;;;;5012252;28;20512;-64
2022/03/30 02:11:55;;;;;;;21.23;7.20;;;;;;;;;;5021350;28;20041;-64
2022/03/30 02:14:21;;;;;;;22.73;7.88;;;;;;;;;;5020302;28;20030;-64
2022/03/30 02:16:47;;;;;;;23.70;7.75;;;;;;;;;;5015373;28;20442;-64
2022/03/30 02:19:13;;;;;;;20.00;7.30;;;;;;;;;;5012408;28;20044;-64
2022/03/30 02:21:39;;;;;;;21.90;8.13;;;;;;;;;;5014063;28;20034;-64
2022/03/30 02:24:06;;;;;;;20.00;8.07;;;;;;;;;;5022624;28;20029;-64
2022/03/30 02:26:32;;;;;;;16.52;8.32;;;;;;;;;;5018084;28;20029;-64
2022/03/30 02:28:59;;;;;;;28.25;8.18;;;;;;;;;;5014443;28;20494;-64
2022/03/30 02:31:25;;;;;;;17.02;7.80;;;;;;;;;;5012044;28;20029;-64
2022/03/30 02:33:51;;;;;;;21.05;8.18;;;;;;;;;;5014663;28;20022;-64
2022/03/30 02:36:17;;;;;;;20.90;7.93;;;;;;;;;;5017352;28;20080;-63
2022/03/30 02:38:44;;;;;;;24.88;7.90;;;;;;;;;;5027364;28;20064;-64
2022/03/30 02:41:10;;;;;;;14.95;7.50;;;;;;;;;;5018677;28;20079;-64
2022/03/30 02:43:37;;;;;;;17.40;7.55;;;;;;;;;;5014878;28;20040;-62
2022/03/30 02:46:03;;;;;;;21.15;7.47;;;;;;;;;;5016449;28;20030;-64
2022/03/30 02:48:32;;;;;;;18.80;8.30;;;;;;;;;;5021020;28;20022;-63
2022/03/30 02:51:06;;;;;;;14.65;7.28;;;;;;;;;;5013168;28;20044;-64
2022/03/30 02:53:33;;;;;;;19.27;8.27;;;;;;;;;;5012762;28;20483;-64
2022/03/30 02:56:00;;;;;;;19.77;7.65;;;;;;;;;;5018692;28;20398;-64
2022/03/30 02:58:26;;;;;;;25.75;7.75;;;;;;;;;;5017247;28;20109;-64
2022/03/30 03:00:53;;;;;;;26.83;8.18;;;;;;;;;;5016421;28;20187;-64
2022/03/30 03:03:19;;;;;;;18.25;7.55;;;;;;;;;;5015727;28;20030;-64
2022/03/30 03:05:45;;;;;;;14.20;7.75;;;;;;;;;;5016237;28;20044;-64
2022/03/30 03:08:12;;;;;;;17.15;7.57;;;;;;;;;;5019869;28;20033;-64
2022/03/30 03:10:39;;;;;;;16.45;6.95;;;;;;;;;;5015161;28;20057;-64
2022/03/30 03:13:06;;;;;;;13.77;7.30;;;;;;;;;;5015687;28;20099;-64
2022/03/30 03:15:33;;;;;;;16.48;7.30;;;;;;;;;;5018420;28;20030;-64
2022/03/30 03:17:59;;;;;;;15.25;6.82;;;;;;;;;;5018558;28;20030;-64
2022/03/30 03:20:25;;;;;;;18.67;7.28;;;;;;;;;;5014568;28;20375;-64
2022/03/30 03:22:51;;;;;;;18.10;7.30;;;;;;;;;;5015936;28;20569;-64
2022/03/30 03:25:17;;;;;;;19.40;7.68;;;;;;;;;;5014424;28;20029;-64
2022/03/30 03:27:43;;;;;;;16.10;6.95;;;;;;;;;;5016813;28;20084;-63
2022/03/30 03:30:09;;;;;;;23.48;7.30;;;;;;;;;;5010983;28;20044;-64
2022/03/30 03:32:35;;;;;;;21.17;6.88;;;;;;;;;;5019697;28;20501;-64
2022/03/30 03:35:02;;;;;;;17.77;7.47;;;;;;;;;;5015742;28;20026;-64
2022/03/30 03:37:27;;;;;;;18.92;6.50;;;;;;;;;;5020007;28;20100;-64
2022/03/30 03:39:53;;;;;;;22.95;7.97;;;;;;;;;;5013817;28;20366;-63
2022/03/30 03:42:19;;;;;;;14.60;6.90;;;;;;;;;;5017942;28;20543;-64
2022/03/30 03:44:45;;;;;;;15.93;6.60;;;;;;;;;;5012938;28;20714;-64
2022/03/30 03:47:11;;;;;;;14.75;6.20;;;;;;;;;;5020126;28;20592;-64
2022/03/30 03:49:37;;;;;;;16.08;7.00;;;;;;;;;;5018149;28;20022;-63
2022/03/30 03:52:04;;;;;;;14.18;6.75;;;;;;;;;;5013376;28;20387;-64
2022/03/30 03:54:30;;;;;;;29.02;6.95;;;;;;;;;;5010446;28;20399;-64
2022/03/30 03:56:56;;;;;;;23.92;7.22;;;;;;;;;;5014010;28;20026;-61
2022/03/30 03:59:22;;;;;;;11.88;6.38;;;;;;;;;;5015532;28;20052;-63
2022/03/30 04:01:48;;;;;;;16.95;7.15;;;;;;;;;;5017506;28;20037;-64
2022/03/30 04:04:13;;;;;;;15.27;6.93;;;;;;;;;;5014808;28;20033;-64
2022/03/30 04:06:39;;;;;;;17.40;6.20;;;;;;;;;;5013950;28;20112;-64
2022/03/30 04:09:04;;;;;;;22.45;6.82;;;;;;;;;;5017823;28;20908;-64
2022/03/30 04:11:30;;;;;;;20.00;7.38;;;;;;;;;;5024632;28;20033;-64
2022/03/30 04:13:59;;;;;;;14.02;6.28;;;;;;;;;;5018011;28;20049;-64
2022/03/30 04:16:45;;;;;;;18.05;7.32;;;;;;;;;;5024013;28;20044;-64
2022/03/30 04:19:30;;;;;;;19.05;6.70;;;;;;;;;;5020083;28;20041;-64
2022/03/30 04:22:17;;;;;;;16.05;7.32;;;;;;;;;;5019180;28;20055;-61
2022/03/30 04:25:04;;;;;;;17.55;6.95;;;;;;;;;;5019548;28;20486;-64
2022/03/30 04:27:51;;;;;;;15.25;7.00;;;;;;;;;;5016046;28;20508;-64
2022/03/30 04:30:37;;;;;;;19.00;8.07;;;;;;;;;;5020484;28;20490;-63
2022/03/30 04:33:23;;;;;;;16.42;6.82;;;;;;;;;;5015323;28;20041;-64
2022/03/30 04:35:49;;;;;;;27.02;9.15;;;;;;;;;;5019186;28;20022;-64
2022/03/30 04:38:14;;;;;;;20.73;7.50;;;;;;;;;;5019616;28;20056;-64
2022/03/30 04:40:40;;;;;;;15.48;7.10;;;;;;;;;;5015056;28;20029;-64
2022/03/30 04:43:07;;;;;;;12.43;6.75;;;;;;;;;;5016956;28;20029;-64
2022/03/30 04:45:32;;;;;;;16.45;7.15;;;;;;;;;;5015470;28;20471;-64
2022/03/30 04:47:57;;;;;;;19.48;8.02;;;;;;;;;;5023902;28;20093;-64
2022/03/30 04:50:24;;;;;;;19.45;8.18;;;;;;;;;;5017008;28;20079;-64
2022/03/30 04:52:51;;;;;;;15.70;6.78;;;;;;;;;;5017836;28;20086;-64
2022/03/30 04:55:16;;;;;;;15.80;7.50;;;;;;;;;;5018182;28;20120;-64
2022/03/30 04:57:42;;;;;;;18.60;7.57;;;;;;;;;;5017020;28;20105;-64
2022/03/30 05:00:09;;;;;;;17.52;7.53;;;;;;;;;;5016125;28;20030;-64
2022/03/30 05:02:36;;;;;;;17.70;8.18;;;;;;;;;;5019004;28;20117;-64
2022/03/30 05:05:03;;;;;;;15.27;7.15;;;;;;;;;;5016077;28;20468;-63
2022/03/30 05:07:29;;;;;;;14.68;7.47;;;;;;;;;;5019931;28;20036;-64
2022/03/30 05:09:54;;;;;;;20.88;7.60;;;;;;;;;;5015879;28;20022;-63
2022/03/30 05:12:20;;;;;;;14.30;7.60;;;;;;;;;;5019248;28;20038;-63
2022/03/30 05:14:45;;;;;;;17.05;7.38;;;;;;;;;;5018076;28;20394;-64
2022/03/30 05:17:11;;;;;;;19.20;8.25;;;;;;;;;;5018949;28;20033;-64
2022/03/30 05:19:39;;;;;;;15.73;7.10;;;;;;;;;;5015764;28;20053;-63
2022/03/30 05:22:05;;;;;;;11.00;6.45;;;;;;;;;;5019884;28;20495;-64
2022/03/30 05:24:31;;;;;;;14.90;7.32;;;;;;;;;;5017422;28;20034;-64
2022/03/30 05:26:57;;;;;;;13.57;7.30;;;;;;;;;;5016281;28;20025;-63
2022/03/30 05:29:24;;;;;;;17.27;7.85;;;;;;;;;;5014686;28;20606;-64
2022/03/30 05:31:49;;;;;;;20.77;8.35;;;;;;;;;;5017497;28;20061;-64
2022/03/30 05:34:16;;;;;;;21.90;8.10;;;;;;;;;;5018410;28;20021;-64
2022/03/30 05:36:42;;;;;;;16.92;8.32;;;;;;;;;;5015562;28;20044;-64
2022/03/30 05:39:08;;;;;;;20.40;8.52;;;;;;;;;;5016563;28;20080;-64
2022/03/30 05:41:34;;;;;;;25.98;8.13;;;;;;;;;;5022953;28;20038;-64
2022/03/30 05:44:01;;;;;;;25.17;7.65;;;;;;;;;;5018540;28;20021;-64
2022/03/30 05:46:27;;;;;;;24.40;8.50;;;;;;;;;;5019617;28;20030;-63
2022/03/30 05:48:52;;;;;;;22.63;8.57;;;;;;;;;;5021997;28;20029;-64
2022/03/30 05:51:18;;;;;;;15.63;7.75;;;;;;;;;;5020181;28;20517;-64
2022/03/30 05:53:44;;;;;;;17.67;7.95;;;;;;;;;;5014576;28;20100;-63
2022/03/30 05:56:10;;;;;;;17.50;7.00;;;;;;;;;;5017938;28;20037;-64
2022/03/30 05:58:37;;;;;;;13.80;8.10;;;;;;;;;;5016752;28;20128;-64
2022/03/30 06:01:03;;;;;;;19.33;7.07;;;;;;;;;;5015595;28;20026;-64
2022/03/30 06:03:29;;;;;;;23.00;8.50;;;;;;;;;;5017626;28;20044;-64
2022/03/30 06:05:55;;;;;;;14.77;7.40;;;;;;;;;;5022739;28;20466;-64
2022/03/30 06:08:20;;;;;;;20.48;8.45;;;;;;;;;;5022939;28;20091;-63
2022/03/30 06:10:46;;;;;;;22.02;8.68;;;;;;;;;;5019369;28;20486;-64
2022/03/30 06:13:12;;;;;;;18.13;7.80;;;;;;;;;;5016497;28;20072;-64
2022/03/30 06:15:39;;;;;;;16.55;7.50;;;;;;;;;;5014738;28;20022;-64
2022/03/30 06:18:10;;;;;;;21.33;7.63;;;;;;;;;;5022683;28;20033;-63
2022/03/30 06:20:39;;;;;;;13.43;7.57;;;;;;;;;;5022210;28;20034;-63
2022/03/30 06:23:04;;;;;;;15.05;7.65;;;;;;;;;;5021820;28;20060;-63
2022/03/30 06:25:31;;;;;;;21.05;8.70;;;;;;;;;;5020896;28;20059;-64
2022/03/30 06:27:58;;;;;;;21.45;7.78;;;;;;;;;;5020421;28;20037;-64
2022/03/30 06:30:24;;;;;;;23.73;7.10;;;;;;;;;;5021489;28;20036;-64
2022/03/30 06:32:51;;;;;;;17.20;7.60;;;;;;;;;;5026980;28;20021;-64
2022/03/30 06:35:18;;;;;;;18.88;7.55;;;;;;;;;;5017560;28;20033;-64
2022/03/30 06:37:45;;;;;;;16.00;6.85;;;;;;;;;;5018504;28;20037;-63
2022/03/30 06:40:11;;;;;;;19.48;7.32;;;;;;;;;;5015506;28;20025;-64
2022/03/30 06:42:38;;;;;;;21.65;7.32;;;;;;;;;;5020098;28;20041;-64
2022/03/30 06:45:06;;;;;;;18.73;6.53;;;;;;;;;;5014402;28;20034;-64
2022/03/30 06:47:32;;;;;;;15.95;6.63;;;;;;;;;;5016920;28;20108;-64
2022/03/30 06:49:58;;;;;;;18.08;6.70;;;;;;;;;;5018460;28;20113;-63
2022/03/30 06:52:24;;;;;;;20.65;6.82;;;;;;;;;;5011678;28;20487;-62
2022/03/30 06:54:49;;;;;;;23.88;7.72;;;;;;;;;;5016611;28;20057;-63
2022/03/30 06:57:15;;;;;;;29.35;7.53;;;;;;;;;;5013392;28;20228;-64
2022/03/30 06:59:41;;;;;;;27.42;7.68;;;;;;;;;;5018208;28;20079;-64
2022/03/30 07:02:06;;;;;;;21.73;7.90;;;;;;;;;;5015509;28;20407;-64
2022/03/30 07:04:34;;;;;;;17.05;7.30;;;;;;;;;;5015805;28;20033;-64
2022/03/30 07:12:28;;;;;;;16.60;6.93;;;;;;;;;;5012567;28;20056;-64
2022/03/30 07:14:54;;;;;;;22.45;8.10;;;;;;;;;;5014767;28;20069;-64
2022/03/30 07:17:19;;;;;;;17.92;6.75;;;;;;;;;;5019779;28;20030;-64
2022/03/30 07:19:45;;;;;;;19.85;8.73;;;;;;;;;;5018664;28;20612;-64
2022/03/30 07:22:13;;;;;;;21.45;8.10;;;;;;;;;;5014444;28;20121;-64
2022/03/30 07:24:40;;;;;;;20.83;8.18;;;;;;;;;;5022734;28;20025;-64
2022/03/30 07:27:05;;;;;;;25.63;7.72;;;;;;;;;;5019092;28;20037;-64
2022/03/30 07:29:31;;;;;;;29.73;8.30;;;;;;;;;;5015823;28;20041;-64
2022/03/30 07:31:57;;;;;;;22.42;7.47;;;;;;;;;;5011410;28;20026;-64
2022/03/30 07:34:22;;;;;;;23.13;7.47;;;;;;;;;;5014745;28;22875;-64
2022/03/30 07:36:48;;;;;;;20.98;7.50;;;;;;;;;;5015846;28;20383;-64
2022/03/30 07:39:15;;;;;;;16.83;6.95;;;;;;;;;;5017296;28;20533;-64
2022/03/30 07:41:40;;;;;;;21.73;7.90;;;;;;;;;;5021493;28;20049;-63
2022/03/30 07:44:06;;;;;;;18.38;8.18;;;;;;;;;;5014957;28;20042;-64
2022/03/30 07:46:33;;;;;;;15.52;8.00;;;;;;;;;;5022144;28;20549;-64
2022/03/30 07:48:59;;;;;;;30.48;10.07;;;;;;;;;;5017900;28;20044;-64
2022/03/30 07:51:24;;;;;;;38.13;9.57;;;;;;;;;;5020613;28;20059;-64
2022/03/30 07:53:50;;;;;;;25.80;9.05;;;;;;;;;;5017499;28;20033;-64
2022/03/30 07:56:16;;;;;;;35.50;10.40;;;;;;;;;;5020098;28;20671;-64
2022/03/30 07:58:41;;;;;;;26.75;8.52;;;;;;;;;;5023715;28;20508;-64
2022/03/30 08:01:07;;;;;;;23.52;8.80;;;;;;;;;;5013246;28;20475;-64
2022/03/30 08:03:33;;;;;;;27.60;8.43;;;;;;;;;;5022100;28;20108;-64
2022/03/30 08:06:00;;;;;;;23.40;9.18;;;;;;;;;;5017843;28;20034;-64
2022/03/30 08:08:26;;;;;;;17.30;8.60;;;;;;;;;;5019868;28;20033;-64
2022/03/30 08:10:53;;;;;;;21.52;9.32;;;;;;;;;;5020832;28;20391;-64
2022/03/30 08:13:19;;;;;;;22.58;10.10;;;;;;;;;;5015879;28;20498;-64
2022/03/30 08:15:45;;;;;;;24.58;9.27;;;;;;;;;;5021544;28;20073;-64
2022/03/30 08:18:11;;;;;;;25.58;9.85;;;;;;;;;;5014684;28;20091;-64
2022/03/30 08:23:22;;;;;;;19.58;9.18;;;;;;;;;;5017444;28;20403;-64
2022/03/30 08:25:48;;;;;;;24.98;10.40;;;;;;;;;;5023783;28;20033;-64
2022/03/30 08:28:14;;;;;;;24.00;9.80;;;;;;;;;;5022091;28;20029;-64
2022/03/30 08:30:39;;;;;;;30.30;9.70;;;;;;;;;;5022058;28;20026;-64
2022/03/30 08:33:05;;;;;;;21.52;9.77;;;;;;;;;;5018840;28;20069;-64
2022/03/30 08:35:32;;;;;;;25.20;8.43;;;;;;;;;;5022004;28;20034;-65
2022/03/30 08:37:58;;;;;;;26.17;8.25;;;;;;;;;;5021216;28;20061;-64
2022/03/30 08:40:24;;;;;;;24.00;9.68;;;;;;;;;;5016536;28;20057;-64
2022/03/30 08:42:52;;;;;;;27.52;10.68;;;;;;;;;;5016500;28;20030;-64
2022/03/30 08:45:19;;;;;;;23.52;11.65;;;;;;;;;;5014608;28;20096;-64
2022/03/30 08:47:46;;;;;;;19.45;10.70;;;;;;;;;;5019462;28;20479;-63
2022/03/30 08:50:11;;;;;;;33.13;11.50;;;;;;;;;;5018191;28;20045;-64
2022/03/30 08:52:37;;;;;;;31.80;12.52;;;;;;;;;;5012966;28;20037;-64
2022/03/30 08:55:04;;;;;;;31.55;11.63;;;;;;;;;;5015614;28;20049;-64
2022/03/30 08:57:29;;;;;;;32.10;11.77;;;;;;;;;;5012810;28;20518;-64
2022/03/30 09:00:05;;;;;;;23.70;10.85;;;;;;;;;;5024103;28;20021;-64
2022/03/30 09:02:34;;;;;;;27.00;10.43;;;;;;;;;;5021530;28;20091;-64
2022/03/30 09:05:19;;;;;;;26.60;10.65;;;;;;;;;;5019894;28;20037;-63
2022/03/30 09:07:48;;;;;;;29.08;12.30;;;;;;;;;;5015098;28;20030;-64
2022/03/30 09:10:32;;;;;;;29.75;10.80;;;;;;;;;;5013544;28;20037;-64
2022/03/30 09:12:58;;;;;;;21.55;10.52;;;;;;;;;;5017142;28;20087;-63
2022/03/30 09:15:25;;;;;;;21.45;9.65;;;;;;;;;;5016334;28;20030;-63
2022/03/30 09:17:59;;;;;;;25.50;8.90;;;;;;;;;;5024055;28;20029;-64
2022/03/30 09:20:26;;;;;;;21.95;8.27;;;;;;;;;;5017380;28;20175;-64
2022/03/30 09:22:55;;;;;;;22.63;8.85;;;;;;;;;;5020581;28;20034;-64
2022/03/30 09:25:24;;;;;;;22.50;9.25;;;;;;;;;;5025091;28;20125;-63
2022/03/30 09:27:51;;;;;;;21.42;8.75;;;;;;;;;;5020467;28;20029;-64
2022/03/30 09:30:17;;;;;;;16.90;8.50;;;;;;;;;;5014868;28;20382;-62
2022/03/30 09:32:46;;;;;;;24.70;9.55;;;;;;;;;;5019564;28;20030;-64
2022/03/30 09:35:32;;;;;;;29.60;10.50;;;;;;;;;;5014761;28;20033;-64
2022/03/30 09:38:09;;;;;;;19.90;10.20;;;;;;;;;;5019040;28;20121;-64
2022/03/30 09:40:36;;;;;;;36.92;15.65;;;;;;;;;;5015581;28;20040;-64
2022/03/30 09:43:19;;;;;;;43.53;16.30;;;;;;;;;;5018741;28;20478;-64
2022/03/30 09:45:48;;;;;;;27.13;14.00;;;;;;;;;;5014343;28;20038;-64
2022/03/30 09:48:17;;;;;;;29.60;12.20;;;;;;;;;;5018696;28;20033;-64
2022/03/30 09:50:45;;;;;;;30.20;12.23;;;;;;;;;;5023296;28;20026;-63
2022/03/30 09:53:13;;;;;;;24.58;13.10;;;;;;;;;;5021278;28;20132;-64
2022/03/30 09:55:59;;;;;;;30.45;12.90;;;;;;;;;;5017307;28;20117;-63
2022/03/30 09:58:27;;;;;;;22.60;11.90;;;;;;;;;;5013303;28;20042;-63
2022/03/30 10:01:11;;;;;;;27.10;11.10;;;;;;;;;;5018843;28;20034;-63
2022/03/30 10:03:52;;;;;;;21.05;9.85;;;;;;;;;;5014070;28;20038;-62
2022/03/30 10:06:35;;;;;;;21.08;9.68;;;;;;;;;;5012350;28;20037;-63
2022/03/30 10:09:01;;;;;;;25.23;10.23;;;;;;;;;;5022438;28;20033;-62
2022/03/30 10:11:28;;;;;;;23.88;9.73;;;;;;;;;;5017484;28;20034;-63
2022/03/30 10:13:56;;;;;;;21.85;10.13;;;;;;;;;;5016158;28;20163;-63
2022/03/30 10:16:23;;;;;;;25.60;10.45;;;;;;;;;;5019808;28;20033;-63
2022/03/30 10:18:51;;;;;;;26.00;10.40;;;;;;;;;;5017425;28;20056;-64
2022/03/30 10:21:41;;;;;;;24.23;9.75;;;;;;;;;;5014447;28;20072;-63
2022/03/30 10:24:56;;;;;;;21.10;8.98;;;;;;;;;;5016549;28;20068;-63
2022/03/30 10:27:46;;;;;;;28.00;9.30;;;;;;;;;;5015177;28;20056;-63
2022/03/30 10:30:12;;;;;;;19.52;9.02;;;;;;;;;;5015408;28;20030;-63
2022/03/30 10:32:39;;;;;;;21.70;9.95;;;;;;;;;;5014052;28;20030;-64
2022/03/30 10:35:08;;;;;;;24.70;10.93;;;;;;;;;;5014624;28;20037;-64
2022/03/30 10:37:46;;;;;;;37.85;12.07;;;;;;;;;;5017615;28;20060;-63
2022/03/30 10:40:24;;;;;;;30.85;15.38;;;;;;;;;;5011873;28;20109;-64
2022/03/30 10:42:50;;;;;;;24.90;12.25;;;;;;;;;;5019757;28;20601;-63
2022/03/30 10:45:27;;;;;;;39.17;12.68;;;;;;;;;;5013992;28;20044;-63
2022/03/30 10:48:09;;;;;;;23.17;11.95;;;;;;;;;;5011003;28;20037;-63
2022/03/30 10:50:36;;;;;;;19.27;10.63;;;;;;;;;;5022910;28;20029;-63
2022/03/30 10:53:02;;;;;;;20.20;9.18;;;;;;;;;;5015832;28;20034;-63
2022/03/30 10:55:31;;;;;;;22.13;9.23;;;;;;;;;;5014982;28;20096;-63
2022/03/30 10:58:01;;;;;;;22.42;9.05;;;;;;;;;;5014507;28;20052;-63
2022/03/30 11:00:38;;;;;;;19.15;8.93;;;;;;;;;;5012440;28;20388;-63
2022/03/30 11:03:25;;;;;;;17.13;8.38;;;;;;;;;;5024618;28;20049;-63
2022/03/30 11:06:11;;;;;;;22.67;9.02;;;;;;;;;;5010223;28;20029;-63
2022/03/30 11:08:38;;;;;;;22.95;9.23;;;;;;;;;;5018236;28;20076;-63
2022/03/30 11:11:19;;;;;;;19.05;8.27;;;;;;;;;;5021821;28;20144;-63
2022/03/30 11:13:45;;;;;;;21.38;9.23;;;;;;;;;;5010822;28;20095;-63
2022/03/30 11:16:14;;;;;;;16.52;9.27;;;;;;;;;;5015077;28;20037;-63
2022/03/30 11:19:05;;;;;;;24.30;11.23;;;;;;;;;;5014627;28;20700;-63
2022/03/30 11:21:31;;;;;;;23.75;9.75;;;;;;;;;;5013176;28;20108;-64
2022/03/30 11:24:11;;;;;;;21.52;9.70;;;;;;;;;;5011876;28;20163;-63
2022/03/30 11:26:49;;;;;;;18.25;9.43;;;;;;;;;;5021386;28;20029;-63
2022/03/30 11:29:39;;;;;;;22.27;9.57;;;;;;;;;;5013520;28;20052;-63
2022/03/30 11:32:34;;;;;;;24.52;10.07;;;;;;;;;;5015669;28;20125;-63
2022/03/30 11:35:00;;;;;;;20.52;9.25;;;;;;;;;;5017351;28;20045;-63
2022/03/30 11:37:37;;;;;;;25.10;10.73;;;;;;;;;;5014850;28;20060;-63
2022/03/30 11:40:15;;;;;;;22.15;10.93;;;;;;;;;;5013751;28;20025;-63
2022/03/30 11:42:52;;;;;;;20.58;9.95;;;;;;;;;;5021524;28;20041;-62
2022/03/30 11:45:23;;;;;;;15.75;9.35;;;;;;;;;;5021101;28;20025;-62
2022/03/30 11:47:52;;;;;;;19.30;9.55;;;;;;;;;;5024681;28;20121;-62
2022/03/30 11:50:47;;;;;;;23.05;9.77;;;;;;;;;;5010158;28;20105;-62
2022/03/30 11:53:24;;;;;;;23.48;9.13;;;;;;;;;;5017045;28;20049;-62
2022/03/30 11:55:54;;;;;;;20.13;8.60;;;;;;;;;;5020265;28;20053;-62
2022/03/30 11:58:31;;;;;;;18.60;9.98;;;;;;;;;;5017209;28;20037;-61
2022/03/30 12:01:00;;;;;;;18.83;8.98;;;;;;;;;;5017372;28;20069;-61
2022/03/30 12:03:26;;;;;;;20.25;10.07;;;;;;;;;;5016571;28;20107;-61
2022/03/30 12:05:55;;;;;;;25.65;10.02;;;;;;;;;;5013206;28;20026;-61
2022/03/30 12:08:21;;;;;;;25.27;9.77;;;;;;;;;;5016199;28;20126;-61
2022/03/30 12:10:48;;;;;;;19.08;10.25;;;;;;;;;;5018407;28;20028;-61
2022/03/30 12:13:22;;;;;;;22.42;10.63;;;;;;;;;;5016028;28;20032;-61
2022/03/30 12:16:09;;;;;;;17.02;10.23;;;;;;;;;;5011440;28;20037;-62
2022/03/30 12:18:50;;;;;;;22.83;11.20;;;;;;;;;;5009900;28;20029;-61
2022/03/30 12:21:24;;;;;;;28.48;10.57;;;;;;;;;;5015064;28;20713;-62
2022/03/30 12:23:59;;;;;;;25.20;11.23;;;;;;;;;;5019579;28;20029;-62
2022/03/30 12:26:25;;;;;;;26.83;11.70;;;;;;;;;;5015691;28;20069;-62
2022/03/30 12:29:07;;;;;;;19.92;10.57;;;;;;;;;;5020404;28;20052;-62
2022/03/30 12:31:41;;;;;;;24.43;11.77;;;;;;;;;;5017234;28;20072;-62
2022/03/30 12:34:15;;;;;;;22.10;11.18;;;;;;;;;;5016739;28;20370;-62
2022/03/30 12:37:05;;;;;;;21.95;11.07;;;;;;;;;;5018069;28;20061;-63
2022/03/30 12:39:39;;;;;;;27.58;11.90;;;;;;;;;;5014879;28;20033;-63
2022/03/30 12:42:10;;;;;;;21.83;11.15;;;;;;;;;;5022303;28;20096;-63
2022/03/30 12:44:38;;;;;;;22.35;11.32;;;;;;;;;;5024497;28;20410;-63
2022/03/30 12:47:13;;;;;;;28.85;11.85;;;;;;;;;;5024275;28;20112;-63
2022/03/30 12:49:42;;;;;;;18.13;10.70;;;;;;;;;;5017453;28;20040;-63
2022/03/30 12:52:17;;;;;;;33.80;11.73;;;;;;;;;;5020540;28;20029;-63
2022/03/30 12:54:45;;;;;;;20.55;10.93;;;;;;;;;;5018669;28;20037;-63
2022/03/30 12:57:11;;;;;;;26.55;10.88;;;;;;;;;;5016330;28;20026;-63
2022/03/30 12:59:41;;;;;;;22.42;11.02;;;;;;;;;;5023894;28;20026;-60
2022/03/30 13:02:23;;;;;;;26.17;11.73;;;;;;;;;;5015776;28;20030;-63
2022/03/30 13:04:51;;;;;;;27.38;12.75;;;;;;;;;;5028287;28;20025;-63
2022/03/30 13:07:21;;;;;;;30.95;11.73;;;;;;;;;;5016239;28;20125;-63
2022/03/30 13:09:59;;;;;;;22.65;10.98;;;;;;;;;;5014382;28;20117;-63
2022/03/30 13:12:49;;;;;;;24.83;11.55;;;;;;;;;;5020527;28;20030;-63
2022/03/30 13:15:15;;;;;;;25.65;11.20;;;;;;;;;;5023146;28;20029;-64
2022/03/30 13:18:00;;;;;;;24.35;10.60;;;;;;;;;;5016246;28;20041;-63
2022/03/30 13:20:28;;;;;;;20.42;10.77;;;;;;;;;;5015795;28;20026;-63
2022/03/30 13:23:00;;;;;;;21.10;11.60;;;;;;;;;;5016843;28;20168;-63
2022/03/30 13:25:35;;;;;;;23.88;11.20;;;;;;;;;;5015259;28;20036;-63
2022/03/30 13:28:03;;;;;;;19.73;12.10;;;;;;;;;;5012582;28;20399;-63
2022/03/30 13:30:30;;;;;;;19.58;11.35;;;;;;;;;;5015188;28;20083;-64
2022/03/30 13:32:57;;;;;;;19.80;11.20;;;;;;;;;;5023303;28;20060;-64
2022/03/30 13:35:23;;;;;;;20.27;11.65;;;;;;;;;;5021640;28;20029;-63
2022/03/30 13:37:50;;;;;;;27.90;11.00;;;;;;;;;;5019729;28;20034;-63
2022/03/30 13:40:17;;;;;;;22.45;10.88;;;;;;;;;;5019624;28;20034;-63
2022/03/30 13:42:43;;;;;;;26.67;10.85;;;;;;;;;;5017119;28;20037;-63
2022/03/30 13:45:09;;;;;;;19.52;9.55;;;;;;;;;;5020046;28;20403;-63
2022/03/30 13:47:35;;;;;;;20.23;10.15;;;;;;;;;;5023124;28;20041;-63
2022/03/30 13:50:02;;;;;;;24.05;10.13;;;;;;;;;;5023420;28;20482;-63
2022/03/30 13:52:29;;;;;;;19.85;9.57;;;;;;;;;;5018608;28;20502;-63
2022/03/30 13:54:54;;;;;;;20.45;10.52;;;;;;;;;;5012871;28;20056;-63
2022/03/30 13:57:20;;;;;;;23.90;10.68;;;;;;;;;;5012917;28;20100;-63
2022/03/30 13:59:46;;;;;;;18.63;10.40;;;;;;;;;;5019249;28;20387;-63
2022/03/30 14:02:12;;;;;;;24.85;10.20;;;;;;;;;;5017054;28;20120;-63
2022/03/30 14:04:39;;;;;;;22.83;11.43;;;;;;;;;;5018483;28;20084;-64
2022/03/30 14:07:06;;;;;;;22.02;10.95;;;;;;;;;;5019560;28;20034;-63
2022/03/30 14:09:34;;;;;;;24.98;11.32;;;;;;;;;;5011759;28;20036;-63
2022/03/30 14:12:01;;;;;;;20.50;11.32;;;;;;;;;;5021199;28;20096;-63
2022/03/30 14:14:30;;;;;;;26.40;12.32;;;;;;;;;;5020573;28;20029;-63
2022/03/30 14:16:58;;;;;;;24.58;11.35;;;;;;;;;;5020517;28;20025;-64
2022/03/30 14:19:24;;;;;;;28.58;11.70;;;;;;;;;;5015851;28;20108;-64
2022/03/30 14:21:50;;;;;;;25.17;12.10;;;;;;;;;;5015824;28;20438;-64
2022/03/30 14:24:16;;;;;;;23.40;10.93;;;;;;;;;;5013523;28;20030;-64
2022/03/30 14:26:42;;;;;;;32.05;11.75;;;;;;;;;;5015316;28;20030;-64
2022/03/30 14:29:08;;;;;;;18.10;9.07;;;;;;;;;;5021869;28;20033;-63
2022/03/30 14:31:34;;;;;;;17.85;9.48;;;;;;;;;;5017051;28;20031;-63
2022/03/30 14:34:00;;;;;;;21.80;9.23;;;;;;;;;;5014275;28;20528;-64
2022/03/30 14:36:27;;;;;;;21.63;8.38;;;;;;;;;;5022024;28;20030;-63
2022/03/30 14:38:52;;;;;;;20.33;9.05;;;;;;;;;;5020818;28;20034;-64
2022/03/30 14:41:18;;;;;;;21.95;9.65;;;;;;;;;;5013619;28;20384;-63
2022/03/30 14:43:44;;;;;;;23.40;9.75;;;;;;;;;;5013769;28;20037;-64
2022/03/30 14:46:10;;;;;;;23.52;9.70;;;;;;;;;;5014243;28;20061;-63
2022/03/30 14:48:36;;;;;;;19.55;8.52;;;;;;;;;;5013075;28;20025;-63